sensor_id;sensor_type;location;lat;lon;timestamp;pressure;altitude;pressure_sealevel;temperature;humidity
9091;BME280;4581;42.416;25.598;2023-12-04T00:00:28;98776.41;;;6.20;nan
9091;BME280;4581;42.416;25.598;2023-12-04T00:02:55;98784.00;;;6.24;nan
9091;BME280;4581;42.416;25.598;2023-12-04T00:05:22;98792.03;;;6.24;nan
9091;BME280;4581;42.416;25.598;2023-12-04T00:07:48;98801.91;;;6.24;nan
9091;BME280;4581;42.416;25.598;2023-12-04T00:10:15;98796.00;;;6.20;nan
9091;BME280;4581;42.416;25.598;2023-12-04T00:12:42;98815.03;;;6.17;nan
9091;BME280;4581;42.416;25.598;2023-12-04T00:15:09;98815.44;;;6.13;nan
9091;BME280;4581;42.416;25.598;2023-12-04T00:17:36;98809.78;;;5.96;nan
9091;BME280;4581;42.416;25.598;2023-12-04T00:20:07;98806.13;;;5.88;nan
9091;BME280;4581;42.416;25.598;2023-12-04T00:22:35;98794.81;;;5.84;nan
9091;BME280;4581;42.416;25.598;2023-12-04T00:25:03;98784.13;;;5.84;nan
9091;BME280;4581;42.416;25.598;2023-12-04T00:27:31;98786.38;;;5.79;nan
9091;BME280;4581;42.416;25.598;2023-12-04T00:29:57;98797.34;;;5.76;nan
9091;BME280;4581;42.416;25.598;2023-12-04T00:32:24;98800.16;;;5.75;nan
9091;BME280;4581;42.416;25.598;2023-12-04T00:34:51;98816.91;;;5.67;nan
9091;BME280;4581;42.416;25.598;2023-12-04T00:37:18;98818.16;;;5.63;nan
9091;BME280;4581;42.416;25.598;2023-12-04T00:39:44;98825.47;;;5.61;nan
9091;BME280;4581;42.416;25.598;2023-12-04T00:42:11;98822.94;;;5.59;nan
9091;BME280;4581;42.416;25.598;2023-12-04T00:44:38;98835.84;;;5.54;nan
9091;BME280;4581;42.416;25.598;2023-12-04T00:47:05;98831.94;;;5.58;nan
9091;BME280;4581;42.416;25.598;2023-12-04T00:49:32;98832.78;;;5.49;nan
9091;BME280;4581;42.416;25.598;2023-12-04T00:51:59;98847.69;;;5.52;nan
9091;BME280;4581;42.416;25.598;2023-12-04T00:54:25;98839.66;;;5.52;nan
9091;BME280;4581;42.416;25.598;2023-12-04T00:56:52;98847.69;;;5.52;nan
9091;BME280;4581;42.416;25.598;2023-12-04T00:59:19;98846.22;;;5.38;nan
9091;BME280;4581;42.416;25.598;2023-12-04T01:01:46;98850.59;;;5.39;nan
9091;BME280;4581;42.416;25.598;2023-12-04T01:04:13;98857.09;;;5.46;nan
9091;BME280;4581;42.416;25.598;2023-12-04T01:06:39;98862.44;;;5.46;nan
9091;BME280;4581;42.416;25.598;2023-12-04T01:09:06;98858.81;;;5.57;nan
9091;BME280;4581;42.416;25.598;2023-12-04T01:11:33;98865.16;;;5.56;nan
9091;BME280;4581;42.416;25.598;2023-12-04T01:14:00;98880.91;;;5.59;nan
9091;BME280;4581;42.416;25.598;2023-12-04T01:16:26;98880.63;;;5.52;nan
9091;BME280;4581;42.416;25.598;2023-12-04T01:18:53;98887.50;;;5.55;nan
9091;BME280;4581;42.416;25.598;2023-12-04T01:21:21;98882.56;;;5.41;nan
9091;BME280;4581;42.416;25.598;2023-12-04T01:23:48;98889.72;;;5.40;nan
9091;BME280;4581;42.416;25.598;2023-12-04T01:26:15;98880.72;;;5.41;nan
9091;BME280;4581;42.416;25.598;2023-12-04T01:28:41;98868.19;;;5.42;nan
9091;BME280;4581;42.416;25.598;2023-12-04T01:31:08;98871.34;;;5.26;nan
9091;BME280;4581;42.416;25.598;2023-12-04T01:33:35;98864.19;;;5.27;nan
9091;BME280;4581;42.416;25.598;2023-12-04T01:36:02;98865.59;;;5.31;nan
9091;BME280;4581;42.416;25.598;2023-12-04T01:38:29;98871.53;;;5.34;nan
9091;BME280;4581;42.416;25.598;2023-12-04T01:40:56;98871.53;;;5.34;nan
9091;BME280;4581;42.416;25.598;2023-12-04T01:43:23;98866.91;;;5.36;nan
9091;BME280;4581;42.416;25.598;2023-12-04T01:45:51;98874.66;;;5.39;nan
9091;BME280;4581;42.416;25.598;2023-12-04T01:48:19;98868.44;;;5.39;nan
9091;BME280;4581;42.416;25.598;2023-12-04T01:50:46;98873.81;;;5.39;nan
9091;BME280;4581;42.416;25.598;2023-12-04T01:53:14;98867.59;;;5.29;nan
9091;BME280;4581;42.416;25.598;2023-12-04T01:55:41;98879.00;;;5.10;nan
9091;BME280;4581;42.416;25.598;2023-12-04T01:58:09;98879.84;;;5.10;nan
9091;BME280;4581;42.416;25.598;2023-12-04T02:00:36;98884.09;;;5.13;nan
9091;BME280;4581;42.416;25.598;2023-12-04T02:03:03;98890.88;;;5.17;nan
9091;BME280;4581;42.416;25.598;2023-12-04T02:05:31;98896.91;;;5.09;nan
9091;BME280;4581;42.416;25.598;2023-12-04T02:07:59;98904.75;;;5.11;nan
9091;BME280;4581;42.416;25.598;2023-12-04T02:10:26;98909.00;;;5.13;nan
9091;BME280;4581;42.416;25.598;2023-12-04T02:12:53;98902.09;;;5.11;nan
9091;BME280;4581;42.416;25.598;2023-12-04T02:15:19;98903.47;;;5.05;nan
9091;BME280;4581;42.416;25.598;2023-12-04T02:17:47;98903.72;;;5.02;nan
9091;BME280;4581;42.416;25.598;2023-12-04T02:20:14;98900.34;;;5.00;nan
9091;BME280;4581;42.416;25.598;2023-12-04T02:22:41;98903.72;;;4.82;nan
9091;BME280;4581;42.416;25.598;2023-12-04T02:25:08;98903.78;;;4.70;nan
9091;BME280;4581;42.416;25.598;2023-12-04T02:27:52;98903.53;;;4.73;nan
9091;BME280;4581;42.416;25.598;2023-12-04T02:30:22;98904.81;;;4.58;nan
9091;BME280;4581;42.416;25.598;2023-12-04T02:32:50;98902.09;;;4.49;nan
9091;BME280;4581;42.416;25.598;2023-12-04T02:35:21;98892.97;;;4.51;nan
9091;BME280;4581;42.416;25.598;2023-12-04T02:37:49;98910.69;;;4.52;nan
9091;BME280;4581;42.416;25.598;2023-12-04T02:40:17;98910.69;;;4.52;nan
9091;BME280;4581;42.416;25.598;2023-12-04T02:42:44;98914.31;;;4.51;nan
9091;BME280;4581;42.416;25.598;2023-12-04T02:45:11;98918.56;;;4.54;nan
9091;BME280;4581;42.416;25.598;2023-12-04T02:47:38;98919.66;;;4.51;nan
9091;BME280;4581;42.416;25.598;2023-12-04T02:50:05;98918.56;;;4.54;nan
9091;BME280;4581;42.416;25.598;2023-12-04T02:52:32;98925.91;;;4.61;nan
9091;BME280;4581;42.416;25.598;2023-12-04T02:54:59;98935.84;;;4.70;nan
9091;BME280;4581;42.416;25.598;2023-12-04T02:57:25;98925.88;;;4.72;nan
9091;BME280;4581;42.416;25.598;2023-12-04T02:59:52;98925.03;;;4.72;nan
9091;BME280;4581;42.416;25.598;2023-12-04T03:02:19;98918.84;;;4.71;nan
9091;BME280;4581;42.416;25.598;2023-12-04T03:04:46;98910.94;;;4.70;nan
9091;BME280;4581;42.416;25.598;2023-12-04T03:07:13;98912.53;;;4.72;nan
9091;BME280;4581;42.416;25.598;2023-12-04T03:09:39;98927.44;;;4.75;nan
9091;BME280;4581;42.416;25.598;2023-12-04T03:12:13;98936.41;;;4.74;nan
9091;BME280;4581;42.416;25.598;2023-12-04T03:14:40;98943.72;;;4.72;nan
9091;BME280;4581;42.416;25.598;2023-12-04T03:17:07;98940.91;;;4.73;nan
9091;BME280;4581;42.416;25.598;2023-12-04T03:19:34;98941.16;;;4.70;nan
9091;BME280;4581;42.416;25.598;2023-12-04T03:22:02;98940.16;;;4.83;nan
9091;BME280;4581;42.416;25.598;2023-12-04T03:24:29;98955.19;;;4.84;nan
9091;BME280;4581;42.416;25.598;2023-12-04T03:26:55;98943.41;;;4.86;nan
9091;BME280;4581;42.416;25.598;2023-12-04T03:29:22;98938.53;;;4.91;nan
9091;BME280;4581;42.416;25.598;2023-12-04T03:31:49;98943.66;;;4.83;nan
9091;BME280;4581;42.416;25.598;2023-12-04T03:34:16;98956.69;;;4.77;nan
9091;BME280;4581;42.416;25.598;2023-12-04T03:36:42;98954.78;;;4.67;nan
9091;BME280;4581;42.416;25.598;2023-12-04T03:39:09;98957.56;;;4.66;nan
9091;BME280;4581;42.416;25.598;2023-12-04T03:41:36;98964.28;;;4.60;nan
9091;BME280;4581;42.416;25.598;2023-12-04T03:44:03;98970.34;;;4.62;nan
9091;BME280;4581;42.416;25.598;2023-12-04T03:46:29;98957.97;;;4.61;nan
9091;BME280;4581;42.416;25.598;2023-12-04T03:48:56;98951.53;;;4.64;nan
9091;BME280;4581;42.416;25.598;2023-12-04T03:51:23;98952.78;;;4.81;nan
9091;BME280;4581;42.416;25.598;2023-12-04T03:53:50;98951.78;;;4.82;nan
9091;BME280;4581;42.416;25.598;2023-12-04T03:56:17;98956.34;;;4.70;nan
9091;BME280;4581;42.416;25.598;2023-12-04T03:58:43;98962.81;;;4.67;nan
9091;BME280;4581;42.416;25.598;2023-12-04T04:01:10;98942.41;;;3.92;nan
9091;BME280;4581;42.416;25.598;2023-12-04T04:03:37;98964.69;;;4.13;nan
9091;BME280;4581;42.416;25.598;2023-12-04T04:06:04;98969.84;;;4.37;nan
9091;BME280;4581;42.416;25.598;2023-12-04T04:08:31;98973.72;;;4.21;nan
9091;BME280;4581;42.416;25.598;2023-12-04T04:10:57;98978.56;;;4.39;nan
9091;BME280;4581;42.416;25.598;2023-12-04T04:13:24;98980.63;;;4.35;nan
9091;BME280;4581;42.416;25.598;2023-12-04T04:15:51;98979.63;;;4.47;nan
9091;BME280;4581;42.416;25.598;2023-12-04T04:18:17;98978.78;;;4.47;nan
9091;BME280;4581;42.416;25.598;2023-12-04T04:20:44;98979.84;;;4.55;nan
9091;BME280;4581;42.416;25.598;2023-12-04T04:23:11;98979.25;;;4.52;nan
9091;BME280;4581;42.416;25.598;2023-12-04T04:25:38;98980.94;;;4.53;nan
9091;BME280;4581;42.416;25.598;2023-12-04T04:28:04;98990.53;;;4.55;nan
9091;BME280;4581;42.416;25.598;2023-12-04T04:30:31;98996.06;;;4.63;nan
9091;BME280;4581;42.416;25.598;2023-12-04T04:32:58;98999.00;;;4.60;nan
9091;BME280;4581;42.416;25.598;2023-12-04T04:35:25;98996.13;;;4.52;nan
9091;BME280;4581;42.416;25.598;2023-12-04T04:37:52;98994.16;;;4.54;nan
9091;BME280;4581;42.416;25.598;2023-12-04T04:40:18;99001.53;;;4.62;nan
9091;BME280;4581;42.416;25.598;2023-12-04T04:42:46;99006.78;;;4.52;nan
9091;BME280;4581;42.416;25.598;2023-12-04T04:45:12;99012.81;;;4.65;nan
9091;BME280;4581;42.416;25.598;2023-12-04T04:47:39;98998.47;;;4.66;nan
9091;BME280;4581;42.416;25.598;2023-12-04T04:50:06;99011.06;;;4.76;nan
9091;BME280;4581;42.416;25.598;2023-12-04T04:52:33;99014.34;;;4.79;nan
9091;BME280;4581;42.416;25.598;2023-12-04T04:55:00;99004.25;;;4.83;nan
9091;BME280;4581;42.416;25.598;2023-12-04T04:57:26;99012.47;;;4.91;nan
9091;BME280;4581;42.416;25.598;2023-12-04T04:59:53;99010.31;;;4.85;nan
9091;BME280;4581;42.416;25.598;2023-12-04T05:02:20;99014.44;;;4.89;nan
9091;BME280;4581;42.416;25.598;2023-12-04T05:04:46;99020.28;;;4.83;nan
9091;BME280;4581;42.416;25.598;2023-12-04T05:07:14;99020.00;;;4.86;nan
9091;BME280;4581;42.416;25.598;2023-12-04T05:09:40;99018.56;;;4.82;nan
9091;BME280;4581;42.416;25.598;2023-12-04T05:12:07;99019.56;;;4.81;nan
9091;BME280;4581;42.416;25.598;2023-12-04T05:14:34;99025.63;;;4.83;nan
9091;BME280;4581;42.416;25.598;2023-12-04T05:17:01;99020.28;;;4.83;nan
9091;BME280;4581;42.416;25.598;2023-12-04T05:19:27;99039.44;;;4.88;nan
9091;BME280;4581;42.416;25.598;2023-12-04T05:21:54;99034.75;;;4.80;nan
9091;BME280;4581;42.416;25.598;2023-12-04T05:24:21;99038.97;;;4.83;nan
9091;BME280;4581;42.416;25.598;2023-12-04T05:26:48;99047.25;;;4.80;nan
9091;BME280;4581;42.416;25.598;2023-12-04T05:29:14;99051.13;;;4.76;nan
9091;BME280;4581;42.416;25.598;2023-12-04T05:31:41;99048.47;;;4.76;nan
9091;BME280;4581;42.416;25.598;2023-12-04T05:34:08;99049.44;;;4.75;nan
9091;BME280;4581;42.416;25.598;2023-12-04T05:36:35;99056.75;;;4.61;nan
9091;BME280;4581;42.416;25.598;2023-12-04T05:39:02;99056.53;;;4.64;nan
9091;BME280;4581;42.416;25.598;2023-12-04T05:41:29;99064.31;;;4.56;nan
9091;BME280;4581;42.416;25.598;2023-12-04T05:43:56;99069.38;;;4.59;nan
9091;BME280;4581;42.416;25.598;2023-12-04T05:46:23;99068.81;;;4.45;nan
9091;BME280;4581;42.416;25.598;2023-12-04T05:48:50;99076.97;;;4.32;nan
9091;BME280;4581;42.416;25.598;2023-12-04T05:51:16;99068.94;;;4.43;nan
9091;BME280;4581;42.416;25.598;2023-12-04T05:53:43;99079.28;;;4.37;nan
9091;BME280;4581;42.416;25.598;2023-12-04T05:56:10;99065.78;;;4.49;nan
9091;BME280;4581;42.416;25.598;2023-12-04T05:58:37;99087.03;;;4.40;nan
9091;BME280;4581;42.416;25.598;2023-12-04T06:01:04;99080.22;;;4.47;nan
9091;BME280;4581;42.416;25.598;2023-12-04T06:03:33;99088.34;;;4.56;nan
9091;BME280;4581;42.416;25.598;2023-12-04T06:05:59;99081.19;;;4.57;nan
9091;BME280;4581;42.416;25.598;2023-12-04T06:08:29;99098.72;;;4.70;nan
9091;BME280;4581;42.416;25.598;2023-12-04T06:10:56;99101.16;;;4.73;nan
9091;BME280;4581;42.416;25.598;2023-12-04T06:13:23;99112.19;;;4.80;nan
9091;BME280;4581;42.416;25.598;2023-12-04T06:15:49;99116.56;;;4.81;nan
9091;BME280;4581;42.416;25.598;2023-12-04T06:18:16;99121.06;;;4.69;nan
9091;BME280;4581;42.416;25.598;2023-12-04T06:20:43;99121.91;;;4.70;nan
9091;BME280;4581;42.416;25.598;2023-12-04T06:23:10;99112.31;;;4.79;nan
9091;BME280;4581;42.416;25.598;2023-12-04T06:25:37;99113.28;;;4.89;nan
9091;BME280;4581;42.416;25.598;2023-12-04T06:28:05;99116.03;;;4.98;nan
9091;BME280;4581;42.416;25.598;2023-12-04T06:30:32;99111.38;;;5.11;nan
9091;BME280;4581;42.416;25.598;2023-12-04T06:32:59;99115.38;;;5.06;nan
9091;BME280;4581;42.416;25.598;2023-12-04T06:35:26;99132.28;;;5.06;nan
9091;BME280;4581;42.416;25.598;2023-12-04T06:37:59;99132.06;;;4.98;nan
9091;BME280;4581;42.416;25.598;2023-12-04T06:40:31;99118.84;;;4.97;nan
9091;BME280;4581;42.416;25.598;2023-12-04T06:42:58;99138.47;;;5.07;nan
9091;BME280;4581;42.416;25.598;2023-12-04T06:45:26;99138.00;;;5.02;nan
9091;BME280;4581;42.416;25.598;2023-12-04T06:47:54;99136.06;;;5.04;nan
9091;BME280;4581;42.416;25.598;2023-12-04T06:50:20;99155.03;;;5.01;nan
9091;BME280;4581;42.416;25.598;2023-12-04T06:52:47;99161.00;;;4.93;nan
9091;BME280;4581;42.416;25.598;2023-12-04T06:55:14;99155.66;;;4.93;nan
9091;BME280;4581;42.416;25.598;2023-12-04T06:57:41;99151.88;;;4.96;nan
9091;BME280;4581;42.416;25.598;2023-12-04T07:00:08;99163.75;;;5.03;nan
9091;BME280;4581;42.416;25.598;2023-12-04T07:02:46;99155.34;;;5.07;nan
9091;BME280;4581;42.416;25.598;2023-12-04T07:05:16;99158.88;;;5.08;nan
9091;BME280;4581;42.416;25.598;2023-12-04T07:07:42;99156.22;;;5.08;nan
9091;BME280;4581;42.416;25.598;2023-12-04T07:10:09;99176.03;;;4.94;nan
9091;BME280;4581;42.416;25.598;2023-12-04T07:12:41;99173.25;;;4.96;nan
9091;BME280;4581;42.416;25.598;2023-12-04T07:15:09;99171.28;;;4.98;nan
9091;BME280;4581;42.416;25.598;2023-12-04T07:17:37;99168.59;;;4.98;nan
9091;BME280;4581;42.416;25.598;2023-12-04T07:20:04;99177.63;;;4.97;nan
9091;BME280;4581;42.416;25.598;2023-12-04T07:22:33;99176.50;;;4.99;nan
9091;BME280;4581;42.416;25.598;2023-12-04T07:25:03;99171.31;;;4.87;nan
9091;BME280;4581;42.416;25.598;2023-12-04T07:27:30;99170.81;;;4.93;nan
9091;BME280;4581;42.416;25.598;2023-12-04T07:29:57;99171.53;;;4.95;nan
9091;BME280;4581;42.416;25.598;2023-12-04T07:32:24;99181.00;;;4.99;nan
9091;BME280;4581;42.416;25.598;2023-12-04T07:34:51;99182.38;;;4.93;nan
9091;BME280;4581;42.416;25.598;2023-12-04T07:37:17;99187.44;;;4.96;nan
9091;BME280;4581;42.416;25.598;2023-12-04T07:39:44;99195.94;;;5.01;nan
9091;BME280;4581;42.416;25.598;2023-12-04T07:42:12;99203.00;;;4.91;nan
9091;BME280;4581;42.416;25.598;2023-12-04T07:44:39;99206.41;;;4.93;nan
9091;BME280;4581;42.416;25.598;2023-12-04T07:47:06;99216.00;;;4.85;nan
9091;BME280;4581;42.416;25.598;2023-12-04T07:49:33;99208.94;;;4.84;nan
9091;BME280;4581;42.416;25.598;2023-12-04T07:51:59;99214.03;;;4.87;nan
9091;BME280;4581;42.416;25.598;2023-12-04T07:54:26;99208.00;;;4.85;nan
9091;BME280;4581;42.416;25.598;2023-12-04T07:56:53;99213.06;;;4.99;nan
9091;BME280;4581;42.416;25.598;2023-12-04T07:59:20;99218.53;;;5.08;nan
9091;BME280;4581;42.416;25.598;2023-12-04T08:01:47;99216.69;;;4.98;nan
9091;BME280;4581;42.416;25.598;2023-12-04T08:04:14;99212.84;;;4.46;nan
9091;BME280;4581;42.416;25.598;2023-12-04T08:06:41;99208.22;;;4.82;nan
9091;BME280;4581;42.416;25.598;2023-12-04T08:09:07;99207.47;;;5.02;nan
9091;BME280;4581;42.416;25.598;2023-12-04T08:11:36;99219.56;;;5.28;nan
9091;BME280;4581;42.416;25.598;2023-12-04T08:14:03;99213.94;;;5.42;nan
9091;BME280;4581;42.416;25.598;2023-12-04T08:16:30;99219.28;;;5.42;nan
9091;BME280;4581;42.416;25.598;2023-12-04T08:18:57;99228.38;;;5.51;nan
9091;BME280;4581;42.416;25.598;2023-12-04T08:21:24;99229.56;;;5.58;nan
9091;BME280;4581;42.416;25.598;2023-12-04T08:23:51;99230.88;;;5.63;nan
9091;BME280;4581;42.416;25.598;2023-12-04T08:26:24;99231.31;;;5.80;nan
9091;BME280;4581;42.416;25.598;2023-12-04T08:28:52;99233.44;;;5.86;nan
9091;BME280;4581;42.416;25.598;2023-12-04T08:31:19;99234.44;;;5.85;nan
9091;BME280;4581;42.416;25.598;2023-12-04T08:33:45;99236.25;;;5.95;nan
9091;BME280;4581;42.416;25.598;2023-12-04T08:36:12;99236.78;;;6.10;nan
9091;BME280;4581;42.416;25.598;2023-12-04T08:38:39;99239.41;;;6.21;nan
9091;BME280;4581;42.416;25.598;2023-12-04T08:41:06;99236.94;;;6.29;nan
9091;BME280;4581;42.416;25.598;2023-12-04T08:43:33;99235.41;;;6.36;nan
9091;BME280;4581;42.416;25.598;2023-12-04T08:46:00;99235.69;;;6.33;nan
9091;BME280;4581;42.416;25.598;2023-12-04T08:48:27;99243.38;;;6.47;nan
9091;BME280;4581;42.416;25.598;2023-12-04T08:50:54;99251.69;;;6.54;nan
9091;BME280;4581;42.416;25.598;2023-12-04T08:53:21;99247.66;;;6.59;nan
9091;BME280;4581;42.416;25.598;2023-12-04T08:55:47;99249.94;;;6.64;nan
9091;BME280;4581;42.416;25.598;2023-12-04T08:58:14;99240.66;;;6.68;nan
9091;BME280;4581;42.416;25.598;2023-12-04T09:00:41;99234.63;;;6.76;nan
9091;BME280;4581;42.416;25.598;2023-12-04T09:03:10;99232.44;;;6.60;nan
9091;BME280;4581;42.416;25.598;2023-12-04T09:05:47;99234.09;;;6.31;nan
9091;BME280;4581;42.416;25.598;2023-12-04T09:08:17;99238.09;;;6.16;nan
9091;BME280;4581;42.416;25.598;2023-12-04T09:10:57;99231.00;;;6.26;nan
9091;BME280;4581;42.416;25.598;2023-12-04T09:13:36;99235.41;;;6.36;nan
9091;BME280;4581;42.416;25.598;2023-12-04T09:16:03;99242.47;;;6.37;nan
9091;BME280;4581;42.416;25.598;2023-12-04T09:18:30;99240.19;;;6.33;nan
9091;BME280;4581;42.416;25.598;2023-12-04T09:20:56;99244.34;;;6.46;nan
9091;BME280;4581;42.416;25.598;2023-12-04T09:23:23;99241.72;;;6.56;nan
9091;BME280;4581;42.416;25.598;2023-12-04T09:25:51;99242.31;;;6.39;nan
9091;BME280;4581;42.416;25.598;2023-12-04T09:28:18;99220.66;;;6.42;nan
9091;BME280;4581;42.416;25.598;2023-12-04T09:30:45;99235.59;;;6.44;nan
9091;BME280;4581;42.416;25.598;2023-12-04T09:33:12;99239.72;;;6.48;nan
9091;BME280;4581;42.416;25.598;2023-12-04T09:35:38;99239.31;;;6.53;nan
9091;BME280;4581;42.416;25.598;2023-12-04T09:38:05;99236.88;;;6.50;nan
9091;BME280;4581;42.416;25.598;2023-12-04T09:40:33;99246.38;;;6.33;nan
9091;BME280;4581;42.416;25.598;2023-12-04T09:42:59;99239.84;;;6.26;nan
9091;BME280;4581;42.416;25.598;2023-12-04T09:45:28;99238.41;;;6.22;nan
9091;BME280;4581;42.416;25.598;2023-12-04T09:47:56;99229.41;;;6.23;nan
9091;BME280;4581;42.416;25.598;2023-12-04T09:50:23;99230.56;;;6.30;nan
9091;BME280;4581;42.416;25.598;2023-12-04T09:52:50;99232.28;;;6.31;nan
9091;BME280;4581;42.416;25.598;2023-12-04T09:55:19;99237.53;;;6.42;nan
9091;BME280;4581;42.416;25.598;2023-12-04T09:57:46;99234.28;;;6.39;nan
9091;BME280;4581;42.416;25.598;2023-12-04T10:00:14;99231.75;;;6.37;nan
9091;BME280;4581;42.416;25.598;2023-12-04T10:02:42;99226.66;;;6.34;nan
9091;BME280;4581;42.416;25.598;2023-12-04T10:05:09;99227.69;;;6.43;nan
9091;BME280;4581;42.416;25.598;2023-12-04T10:07:36;99231.28;;;6.53;nan
9091;BME280;4581;42.416;25.598;2023-12-04T10:10:05;99230.72;;;6.59;nan
9091;BME280;4581;42.416;25.598;2023-12-04T10:12:32;99232.84;;;6.55;nan
9091;BME280;4581;42.416;25.598;2023-12-04T10:15:08;99228.31;;;6.56;nan
9091;BME280;4581;42.416;25.598;2023-12-04T10:17:36;99230.44;;;6.52;nan
9091;BME280;4581;42.416;25.598;2023-12-04T10:20:09;99228.03;;;6.49;nan
9091;BME280;4581;42.416;25.598;2023-12-04T10:22:42;99229.28;;;6.45;nan
9091;BME280;4581;42.416;25.598;2023-12-04T10:25:17;99224.75;;;6.46;nan
9091;BME280;4581;42.416;25.598;2023-12-04T10:27:45;99229.38;;;6.44;nan
9091;BME280;4581;42.416;25.598;2023-12-04T10:30:26;99225.81;;;6.34;nan
9091;BME280;4581;42.416;25.598;2023-12-04T10:32:58;99221.22;;;6.45;nan
9091;BME280;4581;42.416;25.598;2023-12-04T10:35:35;99213.03;;;6.47;nan
9091;BME280;4581;42.416;25.598;2023-12-04T10:38:06;99215.16;;;6.43;nan
9091;BME280;4581;42.416;25.598;2023-12-04T10:40:34;99204.31;;;6.45;nan
9091;BME280;4581;42.416;25.598;2023-12-04T10:45:42;99216.19;;;6.52;nan
9091;BME280;4581;42.416;25.598;2023-12-04T10:48:10;99218.97;;;6.50;nan
9091;BME280;4581;42.416;25.598;2023-12-04T10:50:38;99217.31;;;6.49;nan
9091;BME280;4581;42.416;25.598;2023-12-04T10:53:10;99219.06;;;6.39;nan
9091;BME280;4581;42.416;25.598;2023-12-04T10:55:38;99215.41;;;6.40;nan
9091;BME280;4581;42.416;25.598;2023-12-04T10:58:07;99224.78;;;6.04;nan
9091;BME280;4581;42.416;25.598;2023-12-04T11:00:40;99217.91;;;5.91;nan
9091;BME280;4581;42.416;25.598;2023-12-04T11:03:09;99214.56;;;5.98;nan
9091;BME280;4581;42.416;25.598;2023-12-04T11:05:40;99212.75;;;5.99;nan
9091;BME280;4581;42.416;25.598;2023-12-04T11:08:09;99210.59;;;5.93;nan
9091;BME280;4581;42.416;25.598;2023-12-04T11:11:03;99222.00;;;5.95;nan
9091;BME280;4581;42.416;25.598;2023-12-04T11:13:32;99224.41;;;5.98;nan
9091;BME280;4581;42.416;25.598;2023-12-04T11:16:16;99213.91;;;6.06;nan
9091;BME280;4581;42.416;25.598;2023-12-04T11:18:50;99222.41;;;6.11;nan
9091;BME280;4581;42.416;25.598;2023-12-04T11:21:18;99221.44;;;6.12;nan
9091;BME280;4581;42.416;25.598;2023-12-04T11:23:47;99225.84;;;6.02;nan
9091;BME280;4581;42.416;25.598;2023-12-04T11:26:14;99225.66;;;5.94;nan
9091;BME280;4581;42.416;25.598;2023-12-04T11:28:43;99220.06;;;5.86;nan
9091;BME280;4581;42.416;25.598;2023-12-04T11:31:10;99230.19;;;5.82;nan
9091;BME280;4581;42.416;25.598;2023-12-04T11:33:37;99228.75;;;5.78;nan
9091;BME280;4581;42.416;25.598;2023-12-04T11:36:09;99221.03;;;5.64;nan
9091;BME280;4581;42.416;25.598;2023-12-04T11:38:43;99219.47;;;5.82;nan
9091;BME280;4581;42.416;25.598;2023-12-04T11:41:22;99224.69;;;5.95;nan
9091;BME280;4581;42.416;25.598;2023-12-04T11:43:54;99225.16;;;6.00;nan
9091;BME280;4581;42.416;25.598;2023-12-04T11:46:24;99221.16;;;5.94;nan
9091;BME280;4581;42.416;25.598;2023-12-04T11:48:56;99220.28;;;6.05;nan
9091;BME280;4581;42.416;25.598;2023-12-04T11:54:10;99218.66;;;6.14;nan
9091;BME280;4581;42.416;25.598;2023-12-04T11:56:37;99221.16;;;6.15;nan
9091;BME280;4581;42.416;25.598;2023-12-04T11:59:05;99207.19;;;6.11;nan
9091;BME280;4581;42.416;25.598;2023-12-04T12:01:36;99213.22;;;6.04;nan
9091;BME280;4581;42.416;25.598;2023-12-04T12:04:06;99214.72;;;6.18;nan
9091;BME280;4581;42.416;25.598;2023-12-04T12:06:34;99222.88;;;6.16;nan
9091;BME280;4581;42.416;25.598;2023-12-04T12:09:01;99217.44;;;6.06;nan
9091;BME280;4581;42.416;25.598;2023-12-04T12:11:28;99221.31;;;5.93;nan
9091;BME280;4581;42.416;25.598;2023-12-04T12:13:55;99224.63;;;6.06;nan
9091;BME280;4581;42.416;25.598;2023-12-04T12:16:22;99215.22;;;6.11;nan
9091;BME280;4581;42.416;25.598;2023-12-04T12:18:49;99220.97;;;6.07;nan
9091;BME280;4581;42.416;25.598;2023-12-04T12:21:16;99226.41;;;6.17;nan
9091;BME280;4581;42.416;25.598;2023-12-04T12:23:43;99235.31;;;6.06;nan
9091;BME280;4581;42.416;25.598;2023-12-04T12:26:10;99225.34;;;6.08;nan
9091;BME280;4581;42.416;25.598;2023-12-04T12:28:38;99229.47;;;6.12;nan
9091;BME280;4581;42.416;25.598;2023-12-04T12:31:05;99234.56;;;6.15;nan
9091;BME280;4581;42.416;25.598;2023-12-04T12:33:32;99234.16;;;6.20;nan
9091;BME280;4581;42.416;25.598;2023-12-04T12:36:00;99231.09;;;6.24;nan
9091;BME280;4581;42.416;25.598;2023-12-04T12:38:30;99224.97;;;6.13;nan
9091;BME280;4581;42.416;25.598;2023-12-04T12:41:01;99231.97;;;6.25;nan
9091;BME280;4581;42.416;25.598;2023-12-04T12:43:32;99233.66;;;6.26;nan
9091;BME280;4581;42.416;25.598;2023-12-04T12:45:59;99237.50;;;6.12;nan
9091;BME280;4581;42.416;25.598;2023-12-04T12:48:26;99228.88;;;5.88;nan
9091;BME280;4581;42.416;25.598;2023-12-04T12:50:55;99230.97;;;6.05;nan
9091;BME280;4581;42.416;25.598;2023-12-04T12:53:23;99244.03;;;6.19;nan
9091;BME280;4581;42.416;25.598;2023-12-04T12:55:50;99239.00;;;6.26;nan
9091;BME280;4581;42.416;25.598;2023-12-04T12:58:16;99238.47;;;6.32;nan
9091;BME280;4581;42.416;25.598;2023-12-04T13:00:47;99238.75;;;6.29;nan
9091;BME280;4581;42.416;25.598;2023-12-04T13:03:15;99229.56;;;6.22;nan
9091;BME280;4581;42.416;25.598;2023-12-04T13:05:42;99227.38;;;6.16;nan
9091;BME280;4581;42.416;25.598;2023-12-04T13:08:09;99225.28;;;5.98;nan
9091;BME280;4581;42.416;25.598;2023-12-04T13:10:39;99223.34;;;6.00;nan
9091;BME280;4581;42.416;25.598;2023-12-04T13:13:11;99226.59;;;6.04;nan
9091;BME280;4581;42.416;25.598;2023-12-04T13:15:39;99219.81;;;6.00;nan
9091;BME280;4581;42.416;25.598;2023-12-04T13:18:08;99223.44;;;5.99;nan
9091;BME280;4581;42.416;25.598;2023-12-04T13:20:35;99228.22;;;5.95;nan
9091;BME280;4581;42.416;25.598;2023-12-04T13:23:02;99224.09;;;5.91;nan
9091;BME280;4581;42.416;25.598;2023-12-04T13:25:29;99229.53;;;5.69;nan
9091;BME280;4581;42.416;25.598;2023-12-04T13:27:56;99230.56;;;5.89;nan
9091;BME280;4581;42.416;25.598;2023-12-04T13:30:23;99227.38;;;5.95;nan
9091;BME280;4581;42.416;25.598;2023-12-04T13:32:50;99224.56;;;5.96;nan
9091;BME280;4581;42.416;25.598;2023-12-04T13:35:17;99224.38;;;6.09;nan
9091;BME280;4581;42.416;25.598;2023-12-04T13:37:45;99223.91;;;6.04;nan
9091;BME280;4581;42.416;25.598;2023-12-04T13:40:12;99228.69;;;6.00;nan
9091;BME280;4581;42.416;25.598;2023-12-04T13:42:42;99224.63;;;6.06;nan
9091;BME280;4581;42.416;25.598;2023-12-04T13:45:27;99224.03;;;6.02;nan
9091;BME280;4581;42.416;25.598;2023-12-04T13:47:54;99221.13;;;6.05;nan
9091;BME280;4581;42.416;25.598;2023-12-04T13:50:21;99222.78;;;6.06;nan
9091;BME280;4581;42.416;25.598;2023-12-04T13:52:48;99222.41;;;6.11;nan